Andalusia, Alabama
Current Conditions -  °F | °C
As of 7:56 AM on Thursday 29 Jan 2015 (Local Time) from K79J Reporting Station
Clear Clear  
Wind Chill:   Ceiling: Unl
Heat Index:   Visibility: 10mi
Dew Point:   Wind: 5mph
Humidity: 61%   Direction: 140°SE
Pressure: 30.3"   Gusts: NA
Location:  31.32°N, 86.49°W
Report Text: K79J 291356Z AUTO 14004KT 10SM CLR 08/01 A3030 RMK AO2 SLP259 T00830011
Loading
Personal Weather Stations






























Interactive Weather Map New forecast layout! Learn more

10-Day Weather Forecast

Advertisements
Track Severe Weather on mobile